Ana Sayfa
METAR-TAF:

METAR-TAF

Havaalanları :

Manassas Regional Airport (Harry P. Davis Field)

Manassas, Virginia, Amerika Birleşik Devletleri

Enlem: 38-43N, Boylam: 077-31W, yükseklik: 59 m

Güncel hava durumu gözlemi

Rapor saat 15:56 UTC de 41 dakika önce yapıldı.
Rüzgar değişken yönden 6 kt
Sıcaklık 33°C
Nem 56%
Basınç 1015 hPa
Görüş mesafesi: 16.1 km
Açık gökyüzü

METAR: KHEF 191556Z VRB06KT 10SM CLR 33/23 A2998 RMK AO2 SLP158 T03280233 PNO $

Saat: 12:37 (16:37 UTC)


TAF: eksik

4.000'den fazla havaalanı için hava durumu gözlemleri ve tahminleri (METAR ve TAF raporları).

Kullanılabilir istasyonlar harita üzerinde sarı ve kırmızı noktalarla gösterilir.

İstasyonun adını görmek için fareyi noktanın üzerinde gezdirin.

Sonrasında hava gözlem ve tahminlerini görmek için tıklayın.

Haritayı değiştirmek için: yaklaştırmak için siyah artı işaretli yeşil düğmeye ve uzaklaştırmak için de eksi işaretli düğmeye hızla tıklayın; bitişik haritalar için yeşil okları kullanın.


METAR-TAF: